createdAt,value
2018-12-05T00:00:02.053Z,15.50
2018-12-05T00:02:40.064Z,19.87
2018-12-05T00:05:10.531Z,18.57
2018-12-05T00:07:40.907Z,17.97
2018-12-05T00:10:11.234Z,15.53
2018-12-05T00:12:41.005Z,16.73
2018-12-05T00:15:11.647Z,17.57
2018-12-05T00:17:42.146Z,16.37
2018-12-05T00:20:12.370Z,16.93
2018-12-05T00:22:42.333Z,16.73
2018-12-05T00:25:12.965Z,15.83
2018-12-05T00:27:43.086Z,15.20
2018-12-05T00:30:13.240Z,15.33
2018-12-05T00:32:43.147Z,15.70
2018-12-05T00:35:13.373Z,16.10
2018-12-05T00:37:43.566Z,15.73
2018-12-05T00:40:13.840Z,16.17
2018-12-05T00:42:43.681Z,16.07
2018-12-05T00:45:13.585Z,14.87
2018-12-05T00:47:43.496Z,14.77
2018-12-05T00:50:13.708Z,13.40
2018-12-05T00:52:44.072Z,14.37
2018-12-05T00:55:14.047Z,12.57
2018-12-05T00:57:44.165Z,14.30
2018-12-05T01:00:14.283Z,13.20
2018-12-05T01:02:44.708Z,13.63
2018-12-05T01:05:14.873Z,12.50
2018-12-05T01:07:45.252Z,12.47
2018-12-05T01:10:16.594Z,11.70
2018-12-05T01:12:47.332Z,13.00
2018-12-05T01:15:17.546Z,11.73
2018-12-05T01:17:47.940Z,11.00
2018-12-05T01:20:18.054Z,10.73
2018-12-05T01:22:48.504Z,11.33
2018-12-05T01:25:19.324Z,15.27
2018-12-05T01:27:49.907Z,10.30
2018-12-05T01:30:20.215Z,11.60
2018-12-05T01:32:50.700Z,9.70
2018-12-05T01:35:21.256Z,11.77
2018-12-05T01:37:51.692Z,11.00
2018-12-05T01:40:21.976Z,11.57
2018-12-05T01:42:52.403Z,11.73
2018-12-05T01:45:22.500Z,10.97
2018-12-05T01:47:53.093Z,14.00
2018-12-05T01:50:23.288Z,11.77
2018-12-05T01:52:53.625Z,11.43
2018-12-05T01:55:24.017Z,10.93
2018-12-05T01:57:54.319Z,10.60
2018-12-05T02:00:24.928Z,10.87
2018-12-05T02:02:54.838Z,12.07
2018-12-05T02:05:25.304Z,10.57
2018-12-05T02:07:56.005Z,10.03
2018-12-05T02:10:26.743Z,12.57
2018-12-05T02:12:56.899Z,11.37
2018-12-05T02:15:27.087Z,13.17
2018-12-05T02:17:56.926Z,11.77
2018-12-05T02:20:27.167Z,12.67
2018-12-05T02:22:57.230Z,12.03
2018-12-05T02:25:27.259Z,13.03
2018-12-05T02:27:58.302Z,11.63
2018-12-05T02:30:28.783Z,11.03
2018-12-05T02:32:58.917Z,11.50
2018-12-05T02:35:29.157Z,12.37
2018-12-05T02:37:59.414Z,11.30
2018-12-05T02:40:29.632Z,11.10
2018-12-05T02:42:59.682Z,10.23
2018-12-05T02:45:30.089Z,11.33
2018-12-05T02:48:00.734Z,11.37
2018-12-05T02:50:31.137Z,11.63
2018-12-05T02:53:01.695Z,11.97
2018-12-05T02:55:32.197Z,12.53
2018-12-05T02:58:02.320Z,11.67
2018-12-05T03:00:32.305Z,12.33
2018-12-05T03:03:03.022Z,10.77
2018-12-05T03:05:33.433Z,10.33
2018-12-05T03:08:03.616Z,10.70
2018-12-05T03:10:33.774Z,13.67
2018-12-05T03:13:04.400Z,11.03
2018-12-05T03:15:34.294Z,12.03
2018-12-05T03:18:05.859Z,11.60
2018-12-05T03:20:36.090Z,11.43
2018-12-05T03:23:06.275Z,11.90
2018-12-05T03:25:36.605Z,9.50
2018-12-05T03:28:07.574Z,10.13
2018-12-05T03:30:38.472Z,9.80
2018-12-05T03:33:08.984Z,10.70
2018-12-05T03:35:39.761Z,10.87
2018-12-05T03:38:09.584Z,9.83
2018-12-05T03:40:40.320Z,10.13
2018-12-05T03:43:10.564Z,9.60
2018-12-05T03:45:40.630Z,10.07
2018-12-05T03:48:10.827Z,9.70
2018-12-05T03:50:41.039Z,12.03
2018-12-05T03:53:10.924Z,8.97
2018-12-05T03:55:40.864Z,8.13
2018-12-05T03:58:11.027Z,8.43
2018-12-05T04:00:41.523Z,8.30
2018-12-05T04:03:12.075Z,8.47
2018-12-05T04:05:41.994Z,8.90
2018-12-05T04:08:12.182Z,6.73
2018-12-05T04:10:42.502Z,7.37
2018-12-05T04:13:13.278Z,7.83
2018-12-05T04:15:44.041Z,7.97
2018-12-05T04:18:14.710Z,7.10
2018-12-05T04:20:44.640Z,6.83
2018-12-05T04:23:14.421Z,6.77
2018-12-05T04:25:45.016Z,6.13
2018-12-05T04:28:15.302Z,6.87
2018-12-05T04:30:45.133Z,6.37
2018-12-05T04:33:17.910Z,8.43
2018-12-05T04:35:47.752Z,6.80
2018-12-05T04:38:18.138Z,6.53
2018-12-05T04:40:48.418Z,7.10
2018-12-05T04:43:18.496Z,7.80
2018-12-05T04:45:48.626Z,7.07
2018-12-05T04:48:18.630Z,7.00
2018-12-05T04:50:48.477Z,8.33
2018-12-05T04:53:19.158Z,5.57
2018-12-05T04:55:49.355Z,8.77
2018-12-05T04:58:19.558Z,6.90
2018-12-05T05:00:50.025Z,7.83
2018-12-05T05:03:20.709Z,6.73
2018-12-05T05:05:50.811Z,7.40
2018-12-05T05:08:24.446Z,6.23
2018-12-05T05:10:55.151Z,8.07
2018-12-05T05:13:26.066Z,6.93
2018-12-05T05:15:55.864Z,7.37
2018-12-05T05:18:26.189Z,6.13
2018-12-05T05:20:56.695Z,6.17
2018-12-05T05:23:27.121Z,6.97
2018-12-05T05:25:57.475Z,9.57
2018-12-05T05:28:28.330Z,7.80
2018-12-05T05:30:58.499Z,8.30
2018-12-05T05:33:28.577Z,7.77
2018-12-05T05:35:58.715Z,9.10
2018-12-05T05:38:29.198Z,7.70
2018-12-05T05:40:59.571Z,8.57
2018-12-05T05:43:29.874Z,7.57
2018-12-05T05:45:59.724Z,7.53
2018-12-05T05:48:30.326Z,8.27
2018-12-05T05:51:00.448Z,8.53
2018-12-05T05:53:30.578Z,8.60
2018-12-05T05:56:00.650Z,9.80
2018-12-05T05:58:30.948Z,8.20
2018-12-05T06:01:01.408Z,8.93
2018-12-05T06:03:31.411Z,7.40
2018-12-05T06:06:01.884Z,8.87
2018-12-05T06:08:32.757Z,8.40
2018-12-05T06:11:02.896Z,7.13
2018-12-05T06:13:33.765Z,9.83
2018-12-05T06:16:04.592Z,8.40
2018-12-05T06:18:34.843Z,8.60
2018-12-05T06:21:04.873Z,8.00
2018-12-05T06:23:36.116Z,8.07
2018-12-05T06:26:06.097Z,9.07
2018-12-05T06:28:36.191Z,9.47
2018-12-05T06:31:06.496Z,11.27
2018-12-05T06:33:37.415Z,9.67
2018-12-05T06:36:12.478Z,8.50
2018-12-05T06:38:43.023Z,9.30
2018-12-05T06:41:13.167Z,9.70
2018-12-05T06:43:43.216Z,9.87
2018-12-05T06:46:13.816Z,9.23
2018-12-05T06:48:44.194Z,10.13
2018-12-05T06:51:14.696Z,9.23
2018-12-05T06:53:48.254Z,11.17
2018-12-05T06:56:18.537Z,11.13
2018-12-05T06:58:49.190Z,11.40
2018-12-05T07:01:19.304Z,11.37
2018-12-05T07:03:50.825Z,10.73
2018-12-05T07:06:20.990Z,14.80
2018-12-05T07:08:50.879Z,13.03
2018-12-05T07:11:21.083Z,13.67
2018-12-05T07:13:51.304Z,12.97
2018-12-05T07:16:21.654Z,12.00
2018-12-05T07:18:52.467Z,11.53
2018-12-05T07:21:23.066Z,11.33
2018-12-05T07:23:53.491Z,11.83
2018-12-05T07:26:24.108Z,11.07
2018-12-05T07:28:54.567Z,11.03
2018-12-05T07:31:24.683Z,10.90
2018-12-05T07:33:55.608Z,9.73
2018-12-05T07:36:25.586Z,10.87
2018-12-05T07:38:56.117Z,12.60
2018-12-05T07:41:26.210Z,10.20
2018-12-05T07:43:56.395Z,12.73
2018-12-05T07:46:26.793Z,10.80
2018-12-05T07:48:57.203Z,10.90
2018-12-05T07:51:28.396Z,11.27
2018-12-05T07:53:58.528Z,10.40
2018-12-05T07:56:28.689Z,10.90
2018-12-05T07:59:00.114Z,10.80
2018-12-05T08:01:30.611Z,10.10
2018-12-05T08:04:01.349Z,11.27
2018-12-05T08:06:31.169Z,9.93
2018-12-05T08:09:01.385Z,11.13
2018-12-05T08:11:32.546Z,11.03
2018-12-05T08:14:02.704Z,10.27
2018-12-05T08:16:33.406Z,13.03
2018-12-05T08:19:03.454Z,11.00
2018-12-05T08:21:33.774Z,11.53
2018-12-05T08:24:04.335Z,10.97
2018-12-05T08:26:34.295Z,10.93
2018-12-05T08:29:05.195Z,11.50
2018-12-05T08:31:35.709Z,10.43
2018-12-05T08:34:06.138Z,10.57
2018-12-05T08:36:36.676Z,10.87
2018-12-05T08:39:09.039Z,10.33
2018-12-05T08:41:39.462Z,10.13
2018-12-05T08:44:10.451Z,10.00
2018-12-05T08:46:40.813Z,9.77
2018-12-05T08:49:10.804Z,9.20
2018-12-05T08:51:41.801Z,10.77
2018-12-05T08:54:12.942Z,10.17
2018-12-05T08:56:43.228Z,9.33
2018-12-05T08:59:13.450Z,8.43
2018-12-05T09:01:43.696Z,8.00
2018-12-05T09:04:13.964Z,7.87
2018-12-05T09:06:44.496Z,7.20
2018-12-05T09:09:16.301Z,8.23
2018-12-05T09:11:52.614Z,6.80
2018-12-05T09:14:28.636Z,7.33
2018-12-05T09:16:55.517Z,7.57
2018-12-05T09:19:26.026Z,7.43
2018-12-05T09:21:56.628Z,7.87
2018-12-05T09:24:26.481Z,8.07
2018-12-05T09:26:57.104Z,9.13
2018-12-05T09:29:27.647Z,7.30
2018-12-05T09:31:58.046Z,7.10
2018-12-05T09:34:28.744Z,7.87
2018-12-05T09:36:58.794Z,7.83
2018-12-05T09:39:29.402Z,7.83
2018-12-05T09:41:59.474Z,7.70
2018-12-05T09:44:30.156Z,6.53
2018-12-05T09:47:00.552Z,8.97
2018-12-05T09:49:30.830Z,7.83
2018-12-05T09:52:01.731Z,7.83
2018-12-05T09:54:31.639Z,8.20
2018-12-05T09:57:01.836Z,7.30
2018-12-05T09:59:32.142Z,7.33
2018-12-05T10:02:03.229Z,8.83
2018-12-05T10:04:33.331Z,7.93
2018-12-05T10:07:03.634Z,7.80
2018-12-05T10:09:33.865Z,7.97
2018-12-05T10:12:04.100Z,8.97
2018-12-05T10:14:34.171Z,8.57
2018-12-05T10:17:10.997Z,7.60
2018-12-05T10:19:41.205Z,10.40
2018-12-05T10:22:11.113Z,9.87
2018-12-05T10:24:41.234Z,10.37
2018-12-05T10:27:11.611Z,8.57
2018-12-05T10:29:42.557Z,9.00
2018-12-05T10:32:14.650Z,7.43
2018-12-05T10:34:45.241Z,7.77
2018-12-05T10:37:15.886Z,9.10
2018-12-05T10:39:46.478Z,8.27
2018-12-05T10:42:17.594Z,10.47
2018-12-05T10:44:47.815Z,8.23
2018-12-05T10:47:17.928Z,8.40
2018-12-05T10:49:48.052Z,7.20
2018-12-05T10:52:18.972Z,7.63
2018-12-05T10:54:49.154Z,6.97
2018-12-05T10:57:19.361Z,8.13
2018-12-05T10:59:49.497Z,9.40
2018-12-05T11:02:25.106Z,7.23
2018-12-05T11:05:00.442Z,8.53
2018-12-05T11:07:35.832Z,9.53
2018-12-05T11:10:11.267Z,8.60
2018-12-05T11:12:46.288Z,9.03
2018-12-05T11:15:22.346Z,7.57
2018-12-05T11:17:57.972Z,43.27
2018-12-05T11:20:33.051Z,14.13
2018-12-05T11:23:08.553Z,9.13
2018-12-05T11:25:39.107Z,11.40
2018-12-05T11:28:09.713Z,7.90
2018-12-05T11:30:39.551Z,8.27
2018-12-05T11:33:09.872Z,10.40
2018-12-05T11:35:40.511Z,9.87
2018-12-05T11:38:10.564Z,7.33
2018-12-05T11:40:40.974Z,7.73
2018-12-05T11:43:13.152Z,9.23
2018-12-05T11:45:43.330Z,7.07
2018-12-05T11:48:13.659Z,7.83
2018-12-05T11:50:43.904Z,8.13
2018-12-05T11:53:14.798Z,7.10
2018-12-05T11:55:45.183Z,6.97
2018-12-05T11:58:15.487Z,8.40
2018-12-05T12:00:45.992Z,8.80
2018-12-05T12:03:16.549Z,7.63
2018-12-05T12:05:48.802Z,8.57
2018-12-05T12:08:19.624Z,7.90
2018-12-05T12:10:50.390Z,7.67
2018-12-05T12:13:21.487Z,9.13
2018-12-05T12:15:51.561Z,9.23
2018-12-05T12:18:21.418Z,8.10
2018-12-05T12:20:51.452Z,7.93
2018-12-05T12:23:21.886Z,7.13
2018-12-05T12:25:51.977Z,6.00
2018-12-05T12:28:22.362Z,5.43
2018-12-05T12:30:52.956Z,7.43
2018-12-05T12:33:23.216Z,7.23
2018-12-05T12:35:53.603Z,7.03
2018-12-05T12:38:24.165Z,6.70
2018-12-05T12:40:54.411Z,9.20
2018-12-05T12:43:24.961Z,6.53
2018-12-05T12:45:55.115Z,7.90
2018-12-05T12:48:25.833Z,7.87
2018-12-05T12:50:56.818Z,7.33
2018-12-05T12:53:26.908Z,8.30
2018-12-05T12:55:56.886Z,7.83
2018-12-05T12:58:27.812Z,7.97
2018-12-05T13:00:58.184Z,8.87
2018-12-05T13:03:28.214Z,7.63
2018-12-05T13:05:58.430Z,12.73
2018-12-05T13:08:28.363Z,8.27
2018-12-05T13:10:58.932Z,7.93
2018-12-05T13:13:28.865Z,9.50
2018-12-05T13:15:59.311Z,8.60
2018-12-05T13:18:29.319Z,9.10
2018-12-05T13:20:59.644Z,13.03
2018-12-05T13:23:30.211Z,8.73
2018-12-05T13:26:01.102Z,9.83
2018-12-05T13:28:31.091Z,9.17
2018-12-05T13:31:01.245Z,9.27
2018-12-05T13:33:31.174Z,9.20
2018-12-05T13:36:01.578Z,11.43
2018-12-05T13:38:32.259Z,12.03
2018-12-05T13:41:02.286Z,15.87
2018-12-05T13:43:32.593Z,15.17
2018-12-05T13:46:02.864Z,18.67
2018-12-05T13:48:33.091Z,17.17
2018-12-05T13:51:03.489Z,17.27
2018-12-05T13:53:34.577Z,22.27
2018-12-05T13:56:05.088Z,18.13
2018-12-05T13:58:35.451Z,18.67
2018-12-05T14:01:06.087Z,16.10
2018-12-05T14:03:35.971Z,18.53
2018-12-05T14:06:06.561Z,25.60
2018-12-05T14:08:36.677Z,19.23
2018-12-05T14:11:06.848Z,18.07
2018-12-05T14:13:37.935Z,19.03
2018-12-05T14:16:08.503Z,18.33
2018-12-05T14:18:39.125Z,19.80
2018-12-05T14:21:09.241Z,19.53
2018-12-05T14:23:40.153Z,19.47
2018-12-05T14:26:10.461Z,19.67
2018-12-05T14:28:41.321Z,21.93
2018-12-05T14:31:11.796Z,21.70
2018-12-05T14:33:41.913Z,23.17
2018-12-05T14:36:12.629Z,22.00
2018-12-05T14:38:43.033Z,25.20
2018-12-05T14:41:13.686Z,21.90
2018-12-05T14:43:43.825Z,22.43
2018-12-05T14:46:14.116Z,23.47
2018-12-05T14:48:44.537Z,22.73
2018-12-05T14:51:15.090Z,24.60
2018-12-05T14:53:45.999Z,27.03
2018-12-05T14:56:16.409Z,23.73
2018-12-05T14:58:46.486Z,26.90
2018-12-05T15:01:16.809Z,25.53
2018-12-05T15:03:47.177Z,26.60
2018-12-05T15:06:17.199Z,25.77
2018-12-05T15:08:48.099Z,28.17
2018-12-05T15:11:18.403Z,27.00
2018-12-05T15:13:48.903Z,28.87
2018-12-05T15:16:19.175Z,28.57
2018-12-05T15:18:49.439Z,28.63
2018-12-05T15:21:19.658Z,29.30
2018-12-05T15:23:51.617Z,29.30
2018-12-05T15:26:22.513Z,30.63
2018-12-05T15:28:52.577Z,30.73
2018-12-05T15:31:23.437Z,31.40
2018-12-05T15:33:53.787Z,32.20
2018-12-05T15:36:23.956Z,33.93
2018-12-05T15:38:54.841Z,34.00
2018-12-05T15:41:25.044Z,32.60
2018-12-05T15:43:55.208Z,32.43
2018-12-05T15:46:25.704Z,34.43
2018-12-05T15:48:56.044Z,32.97
2018-12-05T15:51:27.264Z,31.83
2018-12-05T15:53:57.704Z,32.50
2018-12-05T15:56:27.792Z,33.67
2018-12-05T15:58:58.301Z,33.93
2018-12-05T16:01:34.737Z,33.00
2018-12-05T16:04:05.937Z,35.97
2018-12-05T16:06:36.664Z,36.37
2018-12-05T16:09:08.464Z,35.70
2018-12-05T16:11:44.424Z,32.87
2018-12-05T16:14:15.547Z,31.90
2018-12-05T16:16:46.225Z,34.90
2018-12-05T16:19:16.739Z,34.87
2018-12-05T16:21:46.826Z,36.47
2018-12-05T16:24:17.559Z,37.47
2018-12-05T16:26:48.225Z,35.80
2018-12-05T16:29:18.756Z,36.70
2018-12-05T16:31:49.102Z,37.83
2018-12-05T16:34:19.898Z,36.13
2018-12-05T16:36:50.919Z,37.03
2018-12-05T16:39:21.376Z,37.23
2018-12-05T16:41:52.455Z,38.43
2018-12-05T16:44:23.207Z,38.57
2018-12-05T16:46:53.964Z,45.83
2018-12-05T16:49:24.348Z,44.87
2018-12-05T16:51:55.136Z,49.23
2018-12-05T16:54:26.500Z,49.40
2018-12-05T16:56:57.365Z,52.70
2018-12-05T16:59:27.647Z,56.07
2018-12-05T17:01:57.847Z,55.23
2018-12-05T17:04:29.011Z,50.33
2018-12-05T17:06:59.784Z,57.10
2018-12-05T17:09:30.621Z,54.60
2018-12-05T17:12:01.020Z,56.23
2018-12-05T17:14:31.753Z,54.40
2018-12-05T17:17:02.277Z,55.87
2018-12-05T17:19:32.516Z,52.43
2018-12-05T17:22:02.795Z,55.27
2018-12-05T17:24:33.038Z,54.90
2018-12-05T17:27:03.327Z,57.27
2018-12-05T17:29:34.095Z,58.03
2018-12-05T17:32:05.225Z,53.73
2018-12-05T17:34:35.574Z,53.33
2018-12-05T17:37:05.782Z,55.83
2018-12-05T17:39:37.905Z,56.13
2018-12-05T17:42:09.416Z,60.53
2018-12-05T17:44:40.009Z,61.03
2018-12-05T17:47:11.019Z,58.53
2018-12-05T17:49:41.836Z,61.43
2018-12-05T17:52:12.508Z,63.43
2018-12-05T17:54:42.836Z,71.63
2018-12-05T17:57:13.835Z,66.13
2018-12-05T17:59:43.996Z,68.60
2018-12-05T18:02:14.565Z,68.10
2018-12-05T18:04:45.410Z,62.67
2018-12-05T18:07:15.710Z,61.20
2018-12-05T18:09:46.919Z,67.80
2018-12-05T18:12:17.577Z,62.47
2018-12-05T18:14:48.428Z,62.13
2018-12-05T18:17:20.350Z,65.03
2018-12-05T18:19:51.929Z,65.83
2018-12-05T18:22:22.826Z,75.33
2018-12-05T18:24:54.929Z,72.40
2018-12-05T18:27:25.560Z,65.40
2018-12-05T18:30:00.851Z,72.07
2018-12-05T18:32:31.794Z,70.67
2018-12-05T18:35:03.294Z,78.67
2018-12-05T18:37:36.119Z,69.73
2018-12-05T18:40:06.930Z,71.90
2018-12-05T18:42:37.592Z,70.07
2018-12-05T18:45:08.891Z,72.40
2018-12-05T18:47:39.856Z,82.27
2018-12-05T18:50:14.327Z,76.27
2018-12-05T18:52:44.954Z,77.77
2018-12-05T18:55:16.048Z,78.73
2018-12-05T18:57:46.557Z,80.03
2018-12-05T19:00:18.150Z,82.47
2018-12-05T19:02:49.526Z,82.73
2018-12-05T19:05:20.432Z,86.83
2018-12-05T19:07:52.100Z,82.67
2018-12-05T19:10:23.125Z,76.00
2018-12-05T19:12:55.040Z,82.40
2018-12-05T19:15:25.468Z,78.87
2018-12-05T19:18:00.276Z,83.17
2018-12-05T19:20:31.385Z,77.67
2018-12-05T19:23:04.828Z,77.03
2018-12-05T19:25:35.699Z,79.40
2018-12-05T19:28:07.439Z,75.20
2018-12-05T19:30:39.380Z,79.47
2018-12-05T19:33:10.150Z,82.90
2018-12-05T19:35:44.668Z,77.00
2018-12-05T19:38:15.601Z,81.90
2018-12-05T19:40:50.198Z,81.07
2018-12-05T19:43:21.010Z,80.17
2018-12-05T19:45:52.200Z,77.60
2018-12-05T19:48:23.869Z,79.50
2018-12-05T19:50:54.223Z,76.53
2018-12-05T19:53:24.381Z,87.40
2018-12-05T19:55:54.963Z,81.40
2018-12-05T19:58:24.913Z,89.33
2018-12-05T20:00:56.131Z,91.90
2018-12-05T20:03:27.671Z,92.83
2018-12-05T20:06:01.270Z,94.30
2018-12-05T20:08:34.760Z,96.33
2018-12-05T20:11:07.450Z,96.30
2018-12-05T20:13:39.408Z,94.03
2018-12-05T20:16:09.507Z,95.27
2018-12-05T20:18:42.484Z,90.50
2018-12-05T20:21:13.062Z,93.07
2018-12-05T20:23:45.075Z,95.10
2018-12-05T20:26:17.978Z,87.73
2018-12-05T20:28:48.797Z,89.87
2018-12-05T20:31:19.998Z,85.10
2018-12-05T20:33:51.089Z,84.33
2018-12-05T20:36:22.346Z,81.07
2018-12-05T20:38:54.216Z,78.80
2018-12-05T20:41:31.299Z,78.93
2018-12-05T20:43:58.407Z,82.47
2018-12-05T20:46:28.841Z,81.67
2018-12-05T20:49:00.707Z,86.60
2018-12-05T20:51:35.136Z,83.70
2018-12-05T20:54:05.912Z,87.77
2018-12-05T20:56:36.600Z,96.77
2018-12-05T20:59:11.351Z,89.07
2018-12-05T21:01:42.710Z,97.50
2018-12-05T21:04:13.035Z,86.70
2018-12-05T21:09:50.393Z,77.60
2018-12-05T21:12:20.201Z,85.10
2018-12-05T21:14:52.132Z,80.40
2018-12-05T21:17:24.629Z,74.37
2018-12-05T21:19:55.862Z,77.60
2018-12-05T21:22:26.729Z,80.93
2018-12-05T21:24:57.207Z,81.37
2018-12-05T21:27:27.242Z,78.73
2018-12-05T21:29:57.250Z,73.87
2018-12-05T21:32:27.292Z,77.27
2018-12-05T21:34:57.306Z,79.23
2018-12-05T21:37:27.245Z,73.93
2018-12-05T21:39:57.038Z,82.27
2018-12-05T21:42:26.921Z,79.47
2018-12-05T21:44:56.744Z,82.60
2018-12-05T21:47:26.806Z,100.27
2018-12-05T21:49:56.714Z,83.13
2018-12-05T21:52:26.665Z,80.13
2018-12-05T21:54:56.630Z,81.87
2018-12-05T21:57:26.611Z,76.67
2018-12-05T21:59:56.582Z,83.17
2018-12-05T22:02:26.571Z,88.70
2018-12-05T22:04:56.504Z,82.97
2018-12-05T22:07:26.556Z,102.13
2018-12-05T22:09:56.352Z,109.77
2018-12-05T22:12:26.193Z,87.77
2018-12-05T22:14:56.173Z,88.50
2018-12-05T22:17:26.016Z,96.67
2018-12-05T22:19:56.041Z,90.73
2018-12-05T22:22:25.788Z,94.93
2018-12-05T22:24:55.613Z,89.93
2018-12-05T22:27:25.481Z,90.87
2018-12-05T22:29:55.380Z,84.93
2018-12-05T22:32:25.333Z,97.90
2018-12-05T22:34:55.268Z,82.83
2018-12-05T22:37:25.276Z,84.80
2018-12-05T22:39:55.048Z,83.37
2018-12-05T22:42:24.953Z,86.10
2018-12-05T22:44:54.808Z,86.90
2018-12-05T22:47:24.714Z,86.57
2018-12-05T22:49:54.651Z,82.53
2018-12-05T22:52:24.590Z,92.20
2018-12-05T22:54:54.402Z,89.00
2018-12-05T22:57:24.161Z,92.00
2018-12-05T22:59:54.161Z,92.13
2018-12-05T23:02:23.923Z,94.07
2018-12-05T23:04:53.738Z,101.00
2018-12-05T23:07:23.649Z,94.80
2018-12-05T23:09:53.638Z,100.30
2018-12-05T23:12:23.458Z,88.80
2018-12-05T23:14:53.463Z,90.53
2018-12-05T23:17:23.395Z,91.43
2018-12-05T23:19:53.162Z,97.23
2018-12-05T23:22:22.839Z,98.43
2018-12-05T23:24:52.506Z,95.93
2018-12-05T23:27:22.255Z,100.97
2018-12-05T23:29:51.945Z,100.40
2018-12-05T23:32:21.798Z,98.63
2018-12-05T23:34:51.490Z,104.27
2018-12-05T23:37:21.340Z,102.80
2018-12-05T23:39:51.293Z,96.67
2018-12-05T23:42:21.033Z,104.10
2018-12-05T23:44:50.883Z,102.43
2018-12-05T23:47:20.719Z,101.87
2018-12-05T23:49:50.520Z,101.63
2018-12-05T23:52:20.251Z,101.70
2018-12-05T23:54:50.143Z,100.47
2018-12-05T23:57:19.936Z,103.13
2018-12-05T23:59:49.747Z,102.40
